Time;durP1;ratioP1;P1;durP2;ratioP2;P2;SDS_P1;SDS_P2;PMS_P1;PMS_P2;Temp;Humidity;BMP_temperature;BMP_pressure;BME280_temperature;BME280_humidity;BME280_pressure;Samples;Min_cycle;Max_cycle;Signal;HPM_P1;HPM_P2
2021/11/21 00:00:32;;;;;;;14.13;5.28;;;;;;;4.46;71.72;98712.05;1780121;78;21045;-38
2021/11/21 00:03:01;;;;;;;15.23;4.92;;;;;;;4.53;71.75;98719.55;1753501;81;21034;-37
2021/11/21 00:05:28;;;;;;;14.20;5.80;;;;;;;4.55;71.88;98718.67;1734195;80;21202;-37
2021/11/21 00:07:56;;;;;;;15.45;5.15;;;;;;;4.52;72.10;98722.80;1742083;82;21826;-37
2021/11/21 00:10:23;;;;;;;15.30;6.05;;;;;;;4.49;72.35;98720.00;1744827;80;21543;-37
2021/11/21 00:12:50;;;;;;;15.65;5.53;;;;;;;4.48;72.67;98716.53;1729618;80;20935;-37
2021/11/21 00:15:18;;;;;;;16.57;5.00;;;;;;;4.51;72.94;98716.41;1713294;83;21087;-38
2021/11/21 00:17:45;;;;;;;13.62;5.20;;;;;;;4.57;73.18;98721.23;1728588;82;21138;-37
2021/11/21 00:20:16;;;;;;;15.05;5.50;;;;;;;4.61;73.19;98716.75;1741375;80;20997;-37
2021/11/21 00:22:43;;;;;;;16.05;5.60;;;;;;;4.62;73.34;98712.95;1743125;80;20935;-37
2021/11/21 00:25:10;;;;;;;17.90;5.92;;;;;;;4.63;73.57;98711.84;1741814;82;21010;-37
2021/11/21 00:27:38;;;;;;;22.52;5.72;;;;;;;4.69;73.87;98711.06;1742413;82;21091;-37
2021/11/21 00:30:13;;;;;;;15.50;5.60;;;;;;;4.84;73.69;98705.02;1740563;82;21146;-37
2021/11/21 00:32:40;;;;;;;14.40;6.12;;;;;;;4.95;73.66;98700.73;1739160;82;20961;-37
2021/11/21 00:35:07;;;;;;;15.03;6.05;;;;;;;5.02;73.77;98699.62;1740870;82;20931;-37
2021/11/21 00:37:34;;;;;;;15.15;5.80;;;;;;;5.09;73.74;98700.38;1797936;78;21483;-37
2021/11/21 00:40:04;;;;;;;16.75;6.60;;;;;;;5.16;73.79;98705.41;1718184;81;21009;-37
2021/11/21 00:42:33;;;;;;;17.60;5.85;;;;;;;5.31;73.63;98708.52;1753249;81;21121;-37
2021/11/21 00:45:00;;;;;;;14.58;6.00;;;;;;;5.41;73.55;98706.13;1753867;81;20939;-37
2021/11/21 00:47:27;;;;;;;14.60;5.90;;;;;;;5.48;73.59;98693.44;1743785;81;20970;-37
2021/11/21 00:49:54;;;;;;;14.00;5.08;;;;;;;5.54;73.62;98690.73;1735357;82;21058;-37
2021/11/21 00:52:22;;;;;;;15.43;5.78;;;;;;;5.61;73.78;98686.91;1727312;81;21058;-38
2021/11/21 00:57:16;;;;;;;15.00;6.22;;;;;;;5.81;73.92;98677.08;1757177;81;20959;-37
2021/11/21 00:59:44;;;;;;;15.83;6.33;;;;;;;5.86;73.91;98677.58;1762122;81;21049;-38
2021/11/21 01:02:12;;;;;;;13.38;5.58;;;;;;;5.90;74.06;98677.72;1761588;81;21524;-45
2021/11/21 01:04:41;;;;;;;13.83;6.05;;;;;;;5.96;74.24;98665.56;1749883;81;21009;-38
2021/11/21 01:07:11;;;;;;;15.65;6.17;;;;;;;6.04;74.33;98668.67;1772477;79;21129;-38
2021/11/21 01:09:39;;;;;;;12.90;6.22;;;;;;;6.08;74.43;98660.13;1834741;78;20867;-38
2021/11/21 01:12:07;;;;;;;12.33;5.75;;;;;;;6.14;74.52;98656.61;1816796;78;21013;-38
2021/11/21 01:14:36;;;;;;;11.65;5.65;;;;;;;6.19;74.76;98655.01;1834835;78;20953;-37
2021/11/21 01:17:04;;;;;;;14.70;6.05;;;;;;;6.28;74.59;98651.02;1806389;78;21010;-38
2021/11/21 01:19:32;;;;;;;16.02;6.22;;;;;;;6.35;74.38;98649.04;1764385;81;21964;-37
2021/11/21 01:21:59;;;;;;;12.00;6.85;;;;;;;6.33;74.46;98659.39;1763992;81;21052;-37
2021/11/21 01:24:26;;;;;;;13.68;5.60;;;;;;;6.29;74.46;98651.80;1786605;78;20937;-37
2021/11/21 01:26:53;;;;;;;14.50;5.67;;;;;;;6.28;74.35;98649.67;1738374;81;21033;-38
2021/11/21 01:29:21;;;;;;;12.35;5.53;;;;;;;6.29;74.25;98641.81;1748681;81;21041;-38
2021/11/21 01:31:49;;;;;;;14.13;6.47;;;;;;;6.28;74.20;98634.86;1750431;80;21204;-38
2021/11/21 01:34:16;;;;;;;13.65;5.97;;;;;;;6.25;74.31;98632.85;1750184;80;20981;-38
2021/11/21 01:36:43;;;;;;;14.23;5.83;;;;;;;6.22;74.45;98633.56;1751107;82;21033;-37
2021/11/21 01:39:10;;;;;;;12.15;5.97;;;;;;;6.25;74.63;98624.78;1751078;82;21449;-38
2021/11/21 01:41:37;;;;;;;13.35;6.20;;;;;;;6.32;74.64;98629.56;1746085;81;21084;-38
2021/11/21 01:44:05;;;;;;;11.95;5.85;;;;;;;6.30;74.84;98633.94;1804777;78;21796;-38
2021/11/21 01:46:35;;;;;;;14.10;5.87;;;;;;;6.31;75.03;98632.81;1758070;81;21026;-38
2021/11/21 01:49:03;;;;;;;13.62;5.90;;;;;;;6.32;75.34;98626.86;1816682;78;20922;-37
2021/11/21 01:51:50;;;;;;;11.10;5.75;;;;;;;6.41;75.30;98626.11;1764312;81;20966;-37
2021/11/21 01:54:22;;;;;;;11.78;6.22;;;;;;;6.47;75.31;98624.72;1724948;82;21686;-38
2021/11/21 01:56:51;;;;;;;13.20;5.87;;;;;;;6.47;75.43;98618.00;1745752;81;21128;-42
2021/11/21 01:59:20;;;;;;;14.25;5.95;;;;;;;6.49;75.56;98613.80;1751903;81;21511;-38
2021/11/21 02:01:47;;;;;;;14.33;6.53;;;;;;;6.58;75.49;98615.55;1752057;81;21080;-38
2021/11/21 02:04:14;;;;;;;12.98;6.05;;;;;;;6.64;75.44;98612.78;1727875;81;21091;-37
2021/11/21 02:06:42;;;;;;;14.28;6.55;;;;;;;6.66;75.41;98619.95;1744950;81;21074;-38
2021/11/21 02:09:10;;;;;;;11.43;5.87;;;;;;;6.66;75.52;98619.39;1729378;81;21140;-37
2021/11/21 02:11:55;;;;;;;15.05;6.37;;;;;;;6.66;75.59;98616.70;1743888;81;20973;-37
2021/11/21 02:14:41;;;;;;;11.63;6.25;;;;;;;6.73;75.36;98615.49;1751805;81;21503;-37
2021/11/21 02:17:27;;;;;;;11.73;6.45;;;;;;;6.75;75.36;98613.80;1748523;81;21005;-37
2021/11/21 02:19:54;;;;;;;12.95;6.92;;;;;;;6.69;75.66;98610.59;1723243;81;21064;-37
2021/11/21 02:22:41;;;;;;;15.05;7.28;;;;;;;6.72;75.75;98615.86;1726243;81;21123;-38
2021/11/21 02:25:09;;;;;;;12.43;6.45;;;;;;;6.79;75.60;98610.05;1745072;81;21085;-38
2021/11/21 02:27:38;;;;;;;11.73;6.33;;;;;;;6.83;75.62;98601.47;1740069;81;21004;-37
2021/11/21 02:30:07;;;;;;;10.32;6.00;;;;;;;6.83;75.77;98596.65;1749775;81;20976;-38
2021/11/21 02:32:48;;;;;;;9.93;5.63;;;;;;;6.87;75.68;98606.95;1752102;81;21562;-38
2021/11/21 02:35:15;;;;;;;11.50;6.30;;;;;;;6.94;75.47;98596.31;1746449;81;21590;-38
2021/11/21 02:37:42;;;;;;;12.35;6.33;;;;;;;6.98;75.40;98606.03;1737974;81;21559;-38
2021/11/21 02:40:11;;;;;;;13.98;6.67;;;;;;;6.99;75.36;98597.38;1747045;81;20976;-38
2021/11/21 02:42:58;;;;;;;10.18;6.10;;;;;;;7.00;75.39;98598.95;1739923;81;20981;-38
2021/11/21 02:45:26;;;;;;;12.13;6.92;;;;;;;7.00;75.35;98594.91;1722277;81;21048;-38
2021/11/21 02:47:53;;;;;;;10.28;6.47;;;;;;;7.02;75.47;98592.63;1742084;81;21148;-38
2021/11/21 02:50:23;;;;;;;12.05;6.25;;;;;;;7.02;75.64;98605.34;1754693;80;21568;-38
2021/11/21 02:52:51;;;;;;;12.63;6.72;;;;;;;7.01;75.71;98598.39;1725289;81;21519;-38
2021/11/21 02:55:18;;;;;;;9.00;6.05;;;;;;;7.02;75.83;98591.27;1747522;81;20921;-38
2021/11/21 02:57:46;;;;;;;10.80;5.67;;;;;;;7.10;75.73;98603.00;1766649;79;21034;-38
2021/11/21 03:00:15;;;;;;;9.43;6.08;;;;;;;7.13;75.71;98584.19;1769330;81;21820;-38
2021/11/21 03:02:44;;;;;;;9.15;6.03;;;;;;;7.13;75.82;98586.11;1772837;80;21053;-38
2021/11/21 03:05:11;;;;;;;10.45;5.80;;;;;;;7.13;75.81;98578.80;1751022;82;21606;-38
2021/11/21 03:07:40;;;;;;;11.10;6.58;;;;;;;7.18;75.75;98578.52;1768098;80;20965;-38
2021/11/21 03:10:07;;;;;;;11.20;7.00;;;;;;;7.23;75.68;98578.80;1778150;80;21531;-38
2021/11/21 03:12:34;;;;;;;12.00;6.85;;;;;;;7.22;75.72;98579.36;1741567;80;21074;-38
2021/11/21 03:15:03;;;;;;;9.65;5.90;;;;;;;7.20;75.82;98581.66;1751313;82;21036;-38
2021/11/21 03:17:31;;;;;;;11.20;6.35;;;;;;;7.18;76.00;98575.82;1726472;80;21069;-38
2021/11/21 03:19:59;;;;;;;12.80;6.72;;;;;;;7.23;75.87;98571.49;1777087;79;21017;-37
2021/11/21 03:22:27;;;;;;;11.25;6.65;;;;;;;7.25;75.80;98575.19;1759029;80;21029;-38
2021/11/21 03:24:54;;;;;;;10.63;6.17;;;;;;;7.20;75.82;98576.83;1750992;82;21098;-38
2021/11/21 03:27:23;;;;;;;10.15;6.15;;;;;;;7.18;75.75;98579.86;1769615;80;21515;-38
2021/11/21 03:29:50;;;;;;;9.73;6.00;;;;;;;7.20;75.66;98576.83;1740313;82;21459;-38
2021/11/21 03:32:20;;;;;;;12.13;6.60;;;;;;;7.22;75.62;98583.41;1762371;80;21495;-37
2021/11/21 03:34:47;;;;;;;10.18;6.80;;;;;;;7.22;75.65;98594.19;1769331;80;21673;-37
2021/11/21 03:37:14;;;;;;;10.58;6.33;;;;;;;7.22;75.63;98590.14;1756861;79;21837;-37
2021/11/21 03:39:53;;;;;;;8.85;6.00;;;;;;;7.24;75.54;98597.32;1751037;82;21013;-37
2021/11/21 03:42:20;;;;;;;10.40;6.03;;;;;;;7.29;75.60;98591.64;1752722;80;21041;-37
2021/11/21 03:44:47;;;;;;;11.57;6.50;;;;;;;7.34;75.51;98590.58;1769650;80;21031;-38
2021/11/21 03:47:14;;;;;;;13.32;7.22;;;;;;;7.34;75.57;98576.53;1760902;80;21041;-38
2021/11/21 03:49:42;;;;;;;12.47;6.28;;;;;;;7.36;75.61;98574.80;1748872;82;21963;-38
2021/11/21 03:52:09;;;;;;;10.05;6.47;;;;;;;7.42;75.51;98571.47;1727815;80;20999;-38
2021/11/21 03:54:37;;;;;;;9.03;6.58;;;;;;;7.49;75.45;98573.53;1755704;80;20937;-38
2021/11/21 03:57:05;;;;;;;12.00;6.95;;;;;;;7.55;75.32;98565.92;1746578;82;21041;-38
2021/11/21 03:59:33;;;;;;;11.53;6.60;;;;;;;7.55;75.33;98573.42;1738249;81;21048;-38
2021/11/21 04:02:03;;;;;;;10.58;6.30;;;;;;;7.54;75.38;98570.54;1753008;81;21196;-38
2021/11/21 04:04:31;;;;;;;9.75;6.42;;;;;;;7.53;75.43;98556.84;1745584;82;20977;-38
2021/11/21 04:06:58;;;;;;;7.92;6.20;;;;;;;7.61;75.24;98565.82;1737156;82;21080;-38
2021/11/21 04:09:27;;;;;;;9.30;6.87;;;;;;;7.62;75.12;98570.08;1744654;82;20938;-38
2021/11/21 04:11:55;;;;;;;8.93;6.22;;;;;;;7.58;75.22;98565.20;1737856;82;21044;-38
2021/11/21 04:14:22;;;;;;;8.30;6.42;;;;;;;7.56;75.32;98565.55;1721467;82;21130;-38
2021/11/21 04:16:50;;;;;;;7.75;6.42;;;;;;;7.56;75.69;98560.72;1745924;82;21069;-38
2021/11/21 04:19:16;;;;;;;10.58;6.37;;;;;;;7.60;75.78;98555.59;1743449;82;21047;-38
2021/11/21 04:21:44;;;;;;;9.35;7.12;;;;;;;7.62;75.85;98552.55;1744695;81;21073;-38
2021/11/21 04:24:13;;;;;;;8.13;5.75;;;;;;;7.61;76.05;98559.08;1734961;82;21080;-38
2021/11/21 04:26:43;;;;;;;9.93;6.13;;;;;;;7.63;76.24;98557.59;1746075;82;21534;-38
2021/11/21 04:29:11;;;;;;;9.18;7.25;;;;;;;7.72;76.29;98549.26;1737110;82;21738;-38
2021/11/21 04:31:38;;;;;;;9.03;6.47;;;;;;;7.75;76.29;98548.53;1737594;82;21024;-38
2021/11/21 04:34:05;;;;;;;10.35;6.40;;;;;;;7.74;76.48;98546.99;1726225;81;21060;-39
2021/11/21 04:36:33;;;;;;;8.10;6.30;;;;;;;7.75;76.57;98549.31;1722312;82;21590;-38
2021/11/21 04:39:00;;;;;;;8.75;6.67;;;;;;;7.85;76.49;98557.38;1744294;82;21143;-38
2021/11/21 04:41:27;;;;;;;8.58;6.72;;;;;;;7.90;76.48;98561.69;1744674;82;21060;-38
2021/11/21 04:43:57;;;;;;;9.28;6.78;;;;;;;7.91;76.44;98560.55;1737988;81;21045;-38
2021/11/21 04:46:26;;;;;;;9.48;6.72;;;;;;;7.93;76.43;98556.37;1745541;82;20989;-38
2021/11/21 04:48:53;;;;;;;9.73;7.33;;;;;;;8.02;76.17;98568.27;1722903;82;21099;-38
2021/11/21 04:51:21;;;;;;;11.97;7.37;;;;;;;8.07;75.93;98559.86;1729110;82;21953;-38
2021/11/21 04:53:49;;;;;;;8.55;6.33;;;;;;;8.08;75.84;98560.08;1745028;82;21033;-38
2021/11/21 04:56:16;;;;;;;7.83;6.05;;;;;;;8.07;75.70;98553.89;1723985;81;20989;-38
2021/11/21 04:58:44;;;;;;;11.38;6.65;;;;;;;8.15;75.46;98558.25;1765707;81;20938;-38
2021/11/21 05:01:11;;;;;;;8.60;6.70;;;;;;;8.17;75.30;98553.28;1780500;79;21084;-38
2021/11/21 05:03:38;;;;;;;8.35;6.08;;;;;;;8.17;75.26;98548.45;1736679;81;21129;-38
2021/11/21 05:06:05;;;;;;;8.13;6.12;;;;;;;8.17;75.22;98543.84;1767354;79;20974;-38
2021/11/21 05:08:33;;;;;;;9.05;6.50;;;;;;;8.23;75.07;98545.06;1792867;79;21016;-37
2021/11/21 05:11:00;;;;;;;7.85;6.55;;;;;;;8.27;74.94;98546.48;1795877;78;21006;-38
2021/11/21 05:13:29;;;;;;;8.48;6.35;;;;;;;8.27;74.89;98549.19;1779152;79;21031;-38
2021/11/21 05:15:56;;;;;;;7.60;6.40;;;;;;;8.28;74.81;98546.10;1769095;79;21124;-38
2021/11/21 05:18:23;;;;;;;8.05;6.55;;;;;;;8.35;74.65;98543.33;1777426;78;21064;-38
2021/11/21 05:20:51;;;;;;;9.30;7.20;;;;;;;8.38;74.50;98536.63;1771807;79;21032;-38
2021/11/21 05:23:20;;;;;;;9.03;6.92;;;;;;;8.36;74.61;98548.95;1791201;79;21049;-38
2021/11/21 05:25:47;;;;;;;7.65;6.00;;;;;;;8.37;74.72;98539.71;1797285;79;21009;-38
2021/11/21 05:28:14;;;;;;;7.10;6.12;;;;;;;8.44;74.59;98539.23;1778387;79;21871;-38
2021/11/21 05:30:47;;;;;;;8.85;6.90;;;;;;;8.52;74.35;98532.02;1789491;79;21543;-38
2021/11/21 05:33:11;;;;;;;12.60;7.83;;;;;;;8.53;74.27;98532.20;1784612;79;21280;-38
2021/11/21 05:35:38;;;;;;;10.23;7.20;;;;;;;8.54;74.26;98545.35;1765536;81;20994;-38
2021/11/21 05:38:05;;;;;;;9.25;7.90;;;;;;;8.57;74.27;98539.77;1782286;79;21032;-38
2021/11/21 05:40:32;;;;;;;9.23;7.80;;;;;;;8.62;74.13;98532.70;1783591;80;21128;-38
2021/11/21 05:42:59;;;;;;;11.43;9.25;;;;;;;8.65;74.07;98541.45;1757506;79;21511;-38
2021/11/21 05:45:27;;;;;;;10.43;8.58;;;;;;;8.63;74.09;98543.16;1793473;79;20961;-38
2021/11/21 05:47:54;;;;;;;10.32;8.38;;;;;;;8.65;74.08;98548.20;1776147;79;20969;-38
2021/11/21 05:50:22;;;;;;;10.10;8.03;;;;;;;8.69;74.01;98549.80;1766564;79;21092;-38
2021/11/21 05:52:49;;;;;;;9.88;8.28;;;;;;;8.75;73.80;98551.61;1784184;79;21113;-38
2021/11/21 05:55:22;;;;;;;9.95;8.03;;;;;;;8.74;73.77;98552.76;1789545;79;20907;-38
2021/11/21 05:57:50;;;;;;;9.03;7.87;;;;;;;8.70;73.79;98551.36;1798344;79;21000;-42
2021/11/21 06:00:21;;;;;;;11.18;8.08;;;;;;;8.69;73.77;98541.70;1808258;79;21253;-38
2021/11/21 06:02:48;;;;;;;10.38;9.00;;;;;;;8.70;73.73;98552.72;1801351;78;21024;-38
2021/11/21 06:05:16;;;;;;;10.68;9.18;;;;;;;8.67;73.76;98544.55;1739225;82;21152;-38
2021/11/21 06:07:43;;;;;;;12.65;9.53;;;;;;;8.62;73.98;98554.31;1736120;80;21045;-38
2021/11/21 06:10:11;;;;;;;19.48;13.22;;;;;;;8.60;74.12;98553.35;1743311;80;21024;-38
2021/11/21 06:12:39;;;;;;;16.52;12.10;;;;;;;8.57;74.20;98538.42;1746471;81;21017;-38
2021/11/21 06:15:08;;;;;;;16.50;11.50;;;;;;;8.62;74.24;98554.31;1739698;82;21049;-38
2021/11/21 06:17:36;;;;;;;13.40;10.15;;;;;;;8.62;74.39;98547.56;1744777;80;21149;-38
2021/11/21 06:20:05;;;;;;;11.18;9.08;;;;;;;8.62;74.51;98548.91;1732576;81;21027;-38
2021/11/21 06:22:33;;;;;;;11.90;9.47;;;;;;;8.66;74.51;98549.77;1763405;80;21020;-38
2021/11/21 06:24:59;;;;;;;12.75;9.70;;;;;;;8.74;74.38;98550.05;1745961;82;21016;-38
2021/11/21 06:27:26;;;;;;;12.90;9.93;;;;;;;8.75;74.40;98555.67;1770232;80;21041;-38
2021/11/21 06:29:53;;;;;;;11.60;9.68;;;;;;;8.76;74.38;98549.12;1782158;80;21145;-38
2021/11/21 06:32:20;;;;;;;11.25;9.18;;;;;;;8.78;74.35;98549.52;1772586;80;21059;-38
2021/11/21 06:34:47;;;;;;;12.53;10.03;;;;;;;8.86;74.11;98548.45;1744499;80;21044;-38
2021/11/21 06:37:14;;;;;;;14.58;10.88;;;;;;;8.93;73.86;98541.02;1738727;81;21020;-38
2021/11/21 06:39:41;;;;;;;11.95;10.18;;;;;;;8.93;73.75;98549.91;1751744;80;21048;-38
2021/11/21 06:42:14;;;;;;;10.60;9.50;;;;;;;8.95;73.78;98545.50;1721522;83;21901;-38
2021/11/21 06:44:42;;;;;;;13.32;11.00;;;;;;;9.03;73.57;98546.55;1748272;80;21064;-38
2021/11/21 06:47:09;;;;;;;11.83;10.55;;;;;;;9.03;73.41;98554.67;1748656;82;21096;-38
2021/11/21 06:49:36;;;;;;;12.88;10.45;;;;;;;9.03;73.43;98551.19;1741784;80;21056;-38
2021/11/21 06:52:05;;;;;;;13.93;10.90;;;;;;;9.02;73.45;98550.41;1733293;81;21096;-38
2021/11/21 06:54:32;;;;;;;15.18;12.37;;;;;;;9.08;73.38;98546.23;1747269;80;21118;-38
2021/11/21 06:56:59;;;;;;;15.88;12.00;;;;;;;9.10;73.38;98558.80;1750953;81;21029;-38
2021/11/21 06:59:27;;;;;;;14.18;11.40;;;;;;;9.09;73.46;98556.48;1741659;82;21053;-38
2021/11/21 07:01:55;;;;;;;15.18;11.12;;;;;;;9.08;73.54;98564.38;1726406;81;21083;-38
2021/11/21 07:04:22;;;;;;;15.23;12.23;;;;;;;9.13;73.38;98551.31;1729575;81;22181;-38
2021/11/21 07:06:49;;;;;;;14.60;12.28;;;;;;;9.15;73.31;98554.41;1732516;80;21146;-38
2021/11/21 07:09:17;;;;;;;14.38;11.85;;;;;;;9.16;73.34;98553.84;1730109;82;21487;-38
2021/11/21 07:11:49;;;;;;;12.98;11.25;;;;;;;9.19;73.33;98550.98;1722331;82;20968;-38
2021/11/21 07:14:17;;;;;;;13.58;11.45;;;;;;;9.22;73.24;98544.83;1742355;82;20920;-38
2021/11/21 07:16:46;;;;;;;15.88;13.13;;;;;;;9.24;73.25;98547.95;1731714;82;21040;-38
2021/11/21 07:19:13;;;;;;;15.78;12.37;;;;;;;9.20;73.30;98543.09;1738393;82;21133;-38
2021/11/21 07:21:40;;;;;;;13.35;11.55;;;;;;;9.17;73.42;98539.17;1746156;82;21491;-38
2021/11/21 07:24:09;;;;;;;13.38;11.03;;;;;;;9.19;73.39;98531.48;1726925;81;22070;-38
2021/11/21 07:26:36;;;;;;;14.83;12.25;;;;;;;9.23;73.22;98541.77;1716135;83;21613;-38
2021/11/21 07:29:04;;;;;;;15.55;12.88;;;;;;;9.22;73.21;98551.02;1740089;82;21084;-38
2021/11/21 07:31:35;;;;;;;14.10;11.83;;;;;;;9.21;73.22;98544.62;1739699;82;21126;-38
2021/11/21 07:34:03;;;;;;;14.47;11.78;;;;;;;9.20;73.34;98541.12;1746210;82;20906;-38
2021/11/21 07:36:31;;;;;;;16.17;13.00;;;;;;;9.25;73.12;98540.02;1735552;81;21069;-38
2021/11/21 07:38:58;;;;;;;16.15;12.43;;;;;;;9.26;73.07;98544.28;1746013;82;21587;-38
2021/11/21 07:41:25;;;;;;;12.65;11.18;;;;;;;9.24;73.07;98540.63;1747814;81;21100;-38
2021/11/21 07:43:52;;;;;;;14.65;11.50;;;;;;;9.27;73.10;98544.50;1741290;82;21128;-38
2021/11/21 07:46:20;;;;;;;13.55;11.33;;;;;;;9.31;72.89;98537.98;1746032;82;21523;-38
2021/11/21 07:48:48;;;;;;;14.33;12.28;;;;;;;9.36;72.70;98555.80;1739887;82;20969;-38
2021/11/21 07:51:15;;;;;;;17.62;12.47;;;;;;;9.37;72.75;98550.59;1729687;82;21021;-38
2021/11/21 07:53:43;;;;;;;15.05;10.98;;;;;;;9.36;72.62;98551.73;1716519;83;21096;-38
2021/11/21 07:56:10;;;;;;;13.93;10.78;;;;;;;9.41;72.39;98551.41;1716566;82;21194;-38
2021/11/21 07:58:38;;;;;;;13.60;11.68;;;;;;;9.46;72.14;98555.13;1708483;83;21009;-38
2021/11/21 08:01:05;;;;;;;13.28;11.60;;;;;;;9.45;72.09;98553.57;1708760;82;21046;-39
2021/11/21 08:03:32;;;;;;;15.18;11.35;;;;;;;9.42;72.21;98557.81;1800150;78;20983;-38
2021/11/21 08:05:59;;;;;;;14.95;11.15;;;;;;;9.43;72.16;98558.59;1792971;78;21524;-38
2021/11/21 08:08:27;;;;;;;13.40;11.08;;;;;;;9.46;71.79;98553.20;1792244;78;21133;-38
2021/11/21 08:11:12;;;;;;;13.65;11.45;;;;;;;9.49;71.73;98555.73;1823769;78;20942;-38
2021/11/21 08:13:41;;;;;;;13.68;10.30;;;;;;;9.46;71.61;98549.72;1803823;78;20907;-38
2021/11/21 08:16:08;;;;;;;13.32;10.48;;;;;;;9.48;71.64;98556.91;1791248;80;21069;-39
2021/11/21 08:18:36;;;;;;;13.50;10.70;;;;;;;9.52;71.52;98552.30;1795636;79;21073;-39
2021/11/21 08:21:04;;;;;;;14.20;10.65;;;;;;;9.53;71.36;98555.22;1772549;79;20953;-39
2021/11/21 08:23:32;;;;;;;14.15;10.40;;;;;;;9.51;71.38;98551.52;1778721;79;21002;-39
2021/11/21 08:25:59;;;;;;;14.75;10.25;;;;;;;9.52;71.43;98553.66;1812983;78;20949;-39
2021/11/21 08:28:27;;;;;;;12.60;10.15;;;;;;;9.57;71.22;98550.61;1737626;82;21071;-39
2021/11/21 08:30:54;;;;;;;12.53;10.55;;;;;;;9.62;71.07;98554.34;1743020;82;21072;-39
2021/11/21 08:33:21;;;;;;;14.53;11.18;;;;;;;9.63;70.98;98558.61;1742289;82;21141;-39
2021/11/21 08:35:48;;;;;;;14.13;10.35;;;;;;;9.62;70.89;98558.39;1733816;80;21003;-39
2021/11/21 08:38:15;;;;;;;11.95;9.68;;;;;;;9.64;70.73;98552.02;1738090;82;21813;-39
2021/11/21 08:40:43;;;;;;;12.37;10.03;;;;;;;9.69;70.42;98547.63;1724327;80;21035;-39
2021/11/21 08:43:10;;;;;;;11.83;10.18;;;;;;;9.72;70.46;98556.94;1729882;80;21022;-39
2021/11/21 08:45:38;;;;;;;13.03;9.88;;;;;;;9.72;70.26;98546.11;1713340;83;21145;-39
2021/11/21 08:48:05;;;;;;;9.48;8.45;;;;;;;9.72;70.22;98546.89;1713206;83;20977;-39
2021/11/21 08:50:32;;;;;;;10.60;9.08;;;;;;;9.71;70.10;98554.80;1735014;82;20938;-39
2021/11/21 08:52:59;;;;;;;11.38;9.58;;;;;;;9.71;69.83;98553.45;1734586;82;21037;-38
2021/11/21 08:55:27;;;;;;;11.93;9.10;;;;;;;9.71;69.80;98549.39;1713286;83;21032;-38
2021/11/21 08:57:55;;;;;;;10.98;9.15;;;;;;;9.69;69.83;98546.27;1720359;80;21906;-39
2021/11/21 09:00:22;;;;;;;10.53;8.85;;;;;;;9.66;69.86;98537.55;1745651;81;20989;-39
2021/11/21 09:02:49;;;;;;;9.75;8.28;;;;;;;9.67;69.62;98545.10;1717954;81;21701;-39
2021/11/21 09:05:17;;;;;;;10.38;8.50;;;;;;;9.72;69.80;98544.77;1740468;81;21041;-38
2021/11/21 09:07:44;;;;;;;11.78;9.55;;;;;;;9.70;69.67;98538.93;1731720;82;21602;-39
2021/11/21 09:10:15;;;;;;;10.93;8.23;;;;;;;9.68;69.88;98537.97;1742692;82;21135;-39
2021/11/21 09:12:42;;;;;;;10.53;8.10;;;;;;;9.67;70.02;98536.41;1744329;82;21504;-39
2021/11/21 09:15:11;;;;;;;10.08;8.58;;;;;;;9.71;70.02;98531.80;1742788;82;20981;-38
2021/11/21 09:17:38;;;;;;;11.15;9.38;;;;;;;9.74;70.01;98532.97;1743775;81;20931;-38
2021/11/21 09:20:07;;;;;;;10.53;9.03;;;;;;;9.71;70.10;98526.39;1753765;81;21032;-38
2021/11/21 09:22:34;;;;;;;10.43;8.45;;;;;;;9.72;70.27;98532.01;1760462;81;21102;-39
2021/11/21 09:25:01;;;;;;;11.28;8.60;;;;;;;9.75;70.21;98522.35;1743675;82;21513;-39
2021/11/21 09:27:28;;;;;;;11.35;8.90;;;;;;;9.78;70.11;98514.25;1741628;81;20999;-39
2021/11/21 09:29:55;;;;;;;11.15;9.03;;;;;;;9.78;70.21;98515.61;1721092;80;20992;-38
2021/11/21 09:32:22;;;;;;;9.93;7.70;;;;;;;9.78;69.95;98528.39;1729029;82;21064;-39
2021/11/21 09:34:49;;;;;;;10.75;8.13;;;;;;;9.81;70.15;98516.23;1719462;82;21147;-39
2021/11/21 09:37:16;;;;;;;11.68;9.05;;;;;;;9.89;69.85;98519.19;1728796;82;21501;-39
2021/11/21 09:39:45;;;;;;;11.05;8.88;;;;;;;9.95;69.67;98516.91;1746705;81;21005;-39
2021/11/21 09:42:13;;;;;;;10.50;7.67;;;;;;;9.96;69.41;98517.90;1727196;81;21579;-39
2021/11/21 09:44:40;;;;;;;10.08;8.48;;;;;;;9.99;69.67;98509.59;1672549;83;21036;-39
2021/11/21 09:47:08;;;;;;;13.43;8.38;;;;;;;10.02;69.28;98515.02;1730132;81;21145;-39
2021/11/21 09:49:35;;;;;;;9.78;8.10;;;;;;;10.02;69.05;98501.48;1765167;80;20932;-39
2021/11/21 09:52:04;;;;;;;9.98;8.05;;;;;;;9.97;68.98;98501.08;1703262;82;20994;-39
2021/11/21 09:54:31;;;;;;;10.30;8.10;;;;;;;9.93;68.73;98519.98;1750901;81;21012;-39
2021/11/21 09:56:58;;;;;;;11.75;9.00;;;;;;;9.94;69.06;98496.40;1743541;82;21540;-39
2021/11/21 09:59:53;;;;;;;11.10;8.85;;;;;;;9.95;69.03;98506.86;1724437;82;21101;-39
2021/11/21 10:02:21;;;;;;;11.18;9.15;;;;;;;9.91;68.99;98494.45;1683460;82;20981;-39
2021/11/21 10:04:48;;;;;;;12.88;8.53;;;;;;;9.85;69.18;98488.61;1743241;81;20988;-39
2021/11/21 10:07:29;;;;;;;11.68;8.35;;;;;;;9.83;69.18;98498.23;1742521;82;21025;-38
2021/11/21 10:09:58;;;;;;;11.55;8.53;;;;;;;9.88;69.18;98497.31;1747077;80;21087;-39
2021/11/21 10:13:59;;;;;;;10.35;8.25;;;;;;;9.93;68.91;98490.77;1822153;78;22745;-39
2021/11/21 10:16:36;;;;;;;10.20;8.05;;;;;;;9.83;69.13;98499.02;1777399;79;20998;-39
2021/11/21 10:19:05;;;;;;;10.18;8.30;;;;;;;9.88;69.05;98487.06;1802821;79;21029;-39
2021/11/21 10:21:37;;;;;;;11.22;7.95;;;;;;;9.93;68.72;98489.42;1782616;79;20895;-39
2021/11/21 10:24:21;;;;;;;10.48;8.30;;;;;;;9.95;68.61;98477.66;1772773;79;21012;-39
2021/11/21 10:26:48;;;;;;;13.03;8.90;;;;;;;9.91;68.30;98474.92;1769147;80;20986;-39
2021/11/21 10:29:35;;;;;;;10.60;8.05;;;;;;;9.89;68.47;98474.52;1750459;80;21579;-38
2021/11/21 10:32:17;;;;;;;11.60;8.35;;;;;;;9.88;68.59;98468.89;1779580;80;21125;-38
2021/11/21 10:34:53;;;;;;;10.78;8.45;;;;;;;9.92;68.30;98477.81;1757876;80;20894;-39
2021/11/21 10:37:34;;;;;;;13.85;9.00;;;;;;;9.94;67.84;98478.23;1772835;80;20933;-38
2021/11/21 10:40:07;;;;;;;12.18;9.23;;;;;;;9.95;67.92;98469.53;1769359;78;20993;-38
2021/11/21 10:42:41;;;;;;;10.55;8.78;;;;;;;9.96;67.77;98459.69;1764690;80;21020;-38
2021/11/21 10:45:10;;;;;;;11.28;9.10;;;;;;;10.00;67.64;98457.78;1758772;80;21114;-38
2021/11/21 10:47:48;;;;;;;12.40;9.28;;;;;;;10.11;67.10;98457.84;1773627;80;21023;-38
2021/11/21 10:50:36;;;;;;;12.25;9.23;;;;;;;10.13;66.62;98460.16;1767899;79;20957;-38
2021/11/21 10:53:07;;;;;;;10.75;9.15;;;;;;;10.15;66.89;98461.92;1777329;80;21079;-38
2021/11/21 10:55:42;;;;;;;11.33;8.05;;;;;;;9.84;66.54;98415.87;1772062;80;21045;-38
2021/11/21 10:58:17;;;;;;;11.85;9.50;;;;;;;10.15;66.42;98457.86;1760563;80;21114;-48
2021/11/21 11:00:58;;;;;;;11.85;9.48;;;;;;;10.23;66.10;98458.12;1774160;80;21507;-38
2021/11/21 11:03:25;;;;;;;11.70;8.10;;;;;;;10.27;66.23;98460.27;1768999;80;20934;-39
2021/11/21 11:05:53;;;;;;;11.35;8.93;;;;;;;10.26;65.75;98453.32;1762698;79;21588;-51
2021/11/21 11:08:28;;;;;;;12.10;7.62;;;;;;;10.27;66.12;98454.84;1782522;79;21911;-38
2021/11/21 11:10:55;;;;;;;10.15;8.15;;;;;;;10.31;65.51;98450.25;1783353;79;21753;-38
2021/11/21 11:13:24;;;;;;;9.53;7.92;;;;;;;10.36;65.22;98450.64;1784807;79;20910;-38
2021/11/21 11:15:55;;;;;;;10.85;9.13;;;;;;;10.38;64.52;98448.92;1786257;79;21041;-38
2021/11/21 11:18:26;;;;;;;10.45;8.40;;;;;;;10.37;64.62;98451.42;1776064;79;21012;-38
2021/11/21 11:20:56;;;;;;;10.40;8.25;;;;;;;10.32;64.58;98443.66;1737410;81;21554;-38
2021/11/21 11:23:22;;;;;;;11.03;7.62;;;;;;;10.30;64.46;98440.56;1755581;81;21123;-38
2021/11/21 11:25:51;;;;;;;8.73;7.60;;;;;;;10.27;64.28;98439.37;1770341;80;20997;-38
2021/11/21 11:28:26;;;;;;;9.97;7.47;;;;;;;10.32;64.00;98446.36;1786961;80;20938;-38
2021/11/21 11:30:54;;;;;;;8.95;7.65;;;;;;;10.32;64.00;98449.07;1783217;79;21570;-38
2021/11/21 11:33:24;;;;;;;10.10;7.70;;;;;;;10.28;63.74;98445.00;1755686;81;21672;-38
2021/11/21 11:35:53;;;;;;;12.25;7.67;;;;;;;10.25;63.31;98436.86;1754375;81;21144;-38
2021/11/21 11:38:31;;;;;;;8.75;7.12;;;;;;;10.22;63.22;98437.02;1755572;81;21561;-38
2021/11/21 11:41:01;;;;;;;7.97;6.42;;;;;;;10.20;63.44;98439.36;1763968;80;20965;-38
2021/11/21 11:43:32;;;;;;;7.10;6.25;;;;;;;10.20;63.48;98442.64;1755420;81;21033;-38